Aérodrome :
LOGIN :

S'inscrire | Disclaimer

   EN    FR    IT 

 










Légende :    VFR   VFR Marginal   IFR   IFR Intensif   IFR Très Intensif
Visi : 
Plafond : 
>= 8 km
>= 3000ft
5 à 8 km
1000 à 3000 ft
1500m à 5 km
500 à 1000 ft
800 à 1500m
200 à 500 ft
< 800m
< 200 ft
Symboles :   Orages  Brouillard  Fortes neiges  Fortes précipitations  Vent > 20 kt
SIGMETs :   Divers  Orages  Givrage  Turbulence  Onde Orograph.  Cendres Volcan.







- Altitude de l'aérodrome : 218 ft
- Code IATA : LBG
- Voir les cartes d'approche


LFPB - Paris / Le Bourget

DERNIER METAR :
  • 180100Z AUTO 23008KT 6000 -RA OVC006 07/06 Q1021 TEMPO 2000 -DZ BR BKN003

METARs EXPIRÉS :
  • 180030Z AUTO 22008KT 4600 -RADZ BR BKN005 OVC009 06/06 Q1022 TEMPO 2000 -DZ BR
  • 180000Z AUTO 21008KT 180V240 5000 -RA BR BKN005 OVC009 06/05 Q1022 TEMPO 2000 -DZ BR
  • 172330Z AUTO 20007KT 3900 -RA BR OVC005 06/05 Q1023 TEMPO 2500 RA
  • 172300Z AUTO 21005KT 180V250 3500 -RA BR OVC005/// ///TCU 05/05 Q1024 TEMPO 2500 RA BKN005
  • 172230Z AUTO 19006KT 4300 RA BR OVC005/// ///TCU 05/05 Q1024 TEMPO 2500 RA BKN005

TAF TAF LFPB
Valide du 18 à 00h jusqu'au 19 à 00h UTC


172300Z 1800/1824 21010KT 4000 -RA BR BKN005
PROB40
TEMPO 1800/1806 2000 -DZ BR BKN003
BECMG 1805/1807 8000 BKN007
BECMG 1807/1809 35012KT BKN017
BECMG 1820/1822 3000 BR BKN007
ATIS : +33 1 48 62 43 92
Pas de NOTAMs connus pour ce terrain.



MET'MAP, la Météo Aéronautique d'un coup d'oeil ! - Copyright ORBIFLY Décembre 2007 - Disclaimer

ORBIFLY MET'MAP TEAM :

Programmation & Développement : Alexandra Zaïnal
Conception & Développement : Baudouin d'Aumeries
Co-Programmation & Développement : Marc-Olivier Méhu
Soutien technique & logistique : Manuel Goepfert

Contact : metmap@orbifly.com




SOURCES & CREDITS :

   NOAA